createdAt,value
2018-09-20T00:06:36.364Z,93.70
2018-09-20T00:09:06.312Z,99.90
2018-09-20T00:11:34.584Z,99.90
2018-09-20T00:14:02.879Z,99.90
2018-09-20T00:16:31.824Z,99.90
2018-09-20T01:03:30.812Z,99.90
2018-09-20T01:05:59.141Z,99.90
2018-09-20T01:08:27.549Z,99.90
2018-09-20T01:10:56.210Z,99.90
2018-09-20T01:28:15.998Z,99.90
2018-09-20T01:30:44.623Z,99.90
2018-09-20T01:33:13.063Z,99.90
2018-09-20T01:35:41.508Z,99.90
2018-09-20T01:40:38.717Z,99.90
2018-09-20T01:43:07.158Z,99.90
2018-09-20T01:45:35.569Z,99.90
2018-09-20T01:50:32.330Z,99.90
2018-09-20T01:53:00.754Z,99.90
2018-09-20T01:55:29.241Z,99.90
2018-09-20T01:57:57.759Z,99.90
2018-09-20T02:00:26.379Z,99.90
2018-09-20T02:02:55.813Z,99.90
2018-09-20T02:05:24.274Z,99.90
2018-09-20T02:07:52.542Z,99.90
2018-09-20T02:10:20.803Z,99.90
2018-09-20T02:12:50.538Z,99.90
2018-09-20T02:15:19.194Z,99.90
2018-09-20T02:17:48.747Z,99.90
2018-09-20T02:20:17.555Z,99.90
2018-09-20T02:22:46.071Z,99.90
2018-09-20T02:25:14.503Z,99.90
2018-09-20T02:27:43.631Z,99.90
2018-09-20T02:30:12.420Z,99.90
2018-09-20T02:32:40.934Z,99.90
2018-09-20T02:35:10.035Z,99.90
2018-09-20T02:37:38.367Z,99.90
2018-09-20T02:40:07.079Z,99.90
2018-09-20T02:42:35.487Z,99.90
2018-09-20T02:45:03.822Z,99.90
2018-09-20T02:47:32.171Z,99.90
2018-09-20T02:50:00.576Z,99.90
2018-09-20T02:52:28.972Z,99.90
2018-09-20T02:54:57.380Z,99.90
2018-09-20T02:57:25.672Z,99.90
2018-09-20T02:59:53.939Z,99.90
2018-09-20T03:02:22.203Z,99.90
2018-09-20T03:04:50.804Z,99.90
2018-09-20T03:07:19.151Z,99.90
2018-09-20T03:09:47.784Z,99.90
2018-09-20T03:12:20.420Z,99.90
2018-09-20T03:14:49.327Z,99.90
2018-09-20T03:17:17.555Z,99.90
2018-09-20T03:19:45.876Z,99.90
2018-09-20T03:22:14.932Z,99.90
2018-09-20T03:24:43.892Z,99.90
2018-09-20T03:27:12.631Z,99.90
2018-09-20T03:29:50.279Z,99.90
2018-09-20T03:32:18.712Z,99.90
2018-09-20T03:34:48.165Z,99.90
2018-09-20T03:40:24.860Z,99.90
2018-09-20T03:42:53.140Z,99.90
2018-09-20T03:45:21.485Z,99.90
2018-09-20T03:47:50.125Z,99.90
2018-09-20T03:50:19.092Z,99.90
2018-09-20T03:52:47.568Z,99.90
2018-09-20T03:55:16.200Z,99.90
2018-09-20T03:57:44.532Z,99.90
2018-09-20T04:00:12.836Z,99.90
2018-09-20T04:02:41.143Z,99.90
2018-09-20T04:05:09.468Z,99.90
2018-09-20T04:07:38.557Z,99.90
2018-09-20T04:10:06.900Z,99.90
2018-09-20T04:12:35.189Z,99.90
2018-09-20T04:15:03.481Z,99.90
2018-09-20T04:17:31.864Z,99.90
2018-09-20T04:20:00.162Z,99.90
2018-09-20T04:22:28.492Z,99.90
2018-09-20T04:24:59.413Z,99.90
2018-09-20T04:27:28.121Z,99.90
2018-09-20T04:29:56.400Z,99.90
2018-09-20T04:32:24.756Z,99.90
2018-09-20T04:34:53.209Z,99.90
2018-09-20T04:37:21.481Z,99.90
2018-09-20T04:39:50.817Z,99.90
2018-09-20T04:42:19.307Z,99.90
2018-09-20T04:44:48.186Z,99.90
2018-09-20T04:47:19.173Z,99.90
2018-09-20T04:49:47.529Z,99.90
2018-09-20T04:52:19.081Z,99.90
2018-09-20T04:54:47.641Z,99.90
2018-09-20T04:57:16.145Z,99.90
2018-09-20T04:59:44.744Z,99.90
2018-09-20T05:02:13.254Z,99.90
2018-09-20T05:04:42.381Z,99.90
2018-09-20T05:07:10.702Z,99.90
2018-09-20T05:09:39.165Z,99.90
2018-09-20T05:12:07.422Z,99.90
2018-09-20T05:14:35.794Z,99.90
2018-09-20T05:17:04.190Z,99.90
2018-09-20T05:19:32.570Z,99.90
2018-09-20T05:22:00.866Z,99.90
2018-09-20T05:24:29.453Z,99.90
2018-09-20T05:26:57.722Z,99.90
2018-09-20T05:29:26.222Z,99.90
2018-09-20T05:31:54.526Z,99.90
2018-09-20T05:34:22.939Z,99.90
2018-09-20T05:36:51.292Z,99.90
2018-09-20T05:39:19.857Z,99.90
2018-09-20T05:41:48.453Z,99.90
2018-09-20T05:44:17.506Z,99.90
2018-09-20T05:46:46.374Z,99.90
2018-09-20T05:49:14.762Z,99.90
2018-09-20T05:51:43.935Z,99.90
2018-09-20T05:54:12.242Z,99.90
2018-09-20T05:56:41.230Z,99.90
2018-09-20T05:59:09.764Z,99.90
2018-09-20T06:01:38.017Z,99.90
2018-09-20T06:04:06.333Z,99.90
2018-09-20T06:06:34.618Z,99.90
2018-09-20T06:09:03.086Z,99.90
2018-09-20T06:11:33.075Z,99.90
2018-09-20T06:14:01.443Z,99.90
2018-09-20T06:16:30.100Z,99.90
2018-09-20T06:18:58.663Z,99.90
2018-09-20T06:26:23.415Z,99.90
2018-09-20T06:28:51.770Z,99.90
2018-09-20T06:31:20.123Z,99.90
2018-09-20T06:33:48.418Z,99.90
2018-09-20T06:36:16.839Z,99.90
2018-09-20T06:43:42.687Z,99.90
2018-09-20T06:48:39.047Z,99.90
2018-09-20T06:51:07.438Z,99.90
2018-09-20T06:53:35.679Z,99.90
2018-09-20T06:56:03.970Z,99.90
2018-09-20T06:58:32.232Z,99.90
2018-09-20T07:10:53.235Z,99.90
2018-09-20T07:13:21.552Z,99.90
2018-09-20T07:15:49.844Z,99.90
2018-09-20T07:18:18.108Z,99.90
2018-09-20T07:20:46.396Z,99.90
2018-09-20T07:23:14.668Z,99.90
2018-09-20T07:25:43.167Z,99.90
2018-09-20T07:28:11.460Z,99.90
2018-09-20T07:30:39.736Z,99.90
2018-09-20T07:33:08.071Z,99.90
2018-09-20T07:35:36.382Z,99.90
2018-09-20T07:38:04.664Z,99.90
2018-09-20T07:40:32.928Z,99.90
2018-09-20T07:43:01.190Z,99.90
2018-09-20T07:45:29.454Z,99.90
2018-09-20T07:47:57.728Z,99.90
2018-09-20T07:50:26.016Z,99.90
2018-09-20T07:52:54.276Z,99.90
2018-09-20T07:55:22.592Z,99.90
2018-09-20T07:57:50.940Z,99.90
2018-09-20T08:00:19.440Z,99.90
2018-09-20T08:02:47.760Z,99.90
2018-09-20T08:05:16.028Z,99.90
2018-09-20T08:07:44.328Z,99.90
2018-09-20T08:10:12.696Z,99.90
2018-09-20T08:12:40.976Z,99.90
2018-09-20T08:15:09.268Z,99.90
2018-09-20T08:17:37.504Z,99.90
2018-09-20T08:20:05.833Z,99.90
2018-09-20T08:22:34.169Z,99.90
2018-09-20T08:25:02.416Z,99.90
2018-09-20T08:27:30.812Z,99.90
2018-09-20T08:29:59.093Z,99.10
2018-09-20T08:52:11.777Z,98.10
2018-09-20T08:54:40.101Z,94.80
2018-09-20T08:57:08.458Z,94.30
2018-09-20T08:59:36.708Z,94.00
2018-09-20T09:02:04.989Z,93.30
2018-09-20T09:04:33.274Z,93.00
2018-09-20T09:07:01.563Z,92.70
2018-09-20T09:09:29.920Z,93.10
2018-09-20T09:11:58.246Z,93.40
2018-09-20T09:14:26.609Z,93.20
2018-09-20T09:16:54.889Z,93.10
2018-09-20T09:19:23.191Z,92.80
2018-09-20T10:30:57.238Z,92.30
2018-09-20T10:48:14.209Z,85.50
2018-09-20T10:50:42.554Z,88.40
2018-09-20T10:53:10.843Z,88.20
2018-09-20T10:55:39.091Z,86.90
2018-09-20T10:58:07.379Z,85.70
2018-09-20T11:00:35.667Z,85.80
2018-09-20T11:03:04.086Z,85.90
2018-09-20T11:05:32.337Z,85.40
2018-09-20T11:08:00.579Z,85.10
2018-09-20T11:10:28.955Z,85.90
2018-09-20T11:12:57.316Z,84.70
2018-09-20T11:15:25.579Z,84.70
2018-09-20T11:17:53.915Z,85.40
2018-09-20T11:20:22.584Z,86.40
2018-09-20T11:22:50.849Z,87.20
2018-09-20T11:25:19.112Z,87.00
2018-09-20T11:27:47.391Z,86.70
2018-09-20T12:22:08.752Z,85.80
2018-09-20T12:24:37.008Z,77.60
2018-09-20T12:27:05.316Z,78.20
2018-09-20T12:49:18.852Z,77.50
2018-09-20T12:51:47.117Z,74.80
2018-09-20T19:00:24.785Z,74.30
2018-09-20T20:56:25.797Z,92.10
2018-09-20T20:58:54.135Z,97.10
2018-09-20T21:01:22.342Z,97.30
2018-09-20T21:03:50.937Z,97.40
2018-09-20T21:06:19.566Z,97.50
2018-09-20T21:08:48.121Z,97.70
2018-09-20T21:11:16.843Z,97.60
2018-09-20T21:13:45.121Z,97.60
2018-09-20T21:16:13.411Z,97.90
2018-09-20T21:18:41.951Z,98.00
2018-09-20T21:21:10.250Z,98.00
2018-09-20T21:45:51.204Z,98.10
2018-09-20T21:50:47.560Z,96.20
2018-09-20T21:53:15.800Z,95.50
2018-09-20T21:55:44.072Z,95.30
2018-09-20T21:58:12.321Z,95.10
2018-09-20T22:57:28.289Z,95.00
2018-09-20T22:59:56.613Z,94.50
2018-09-20T23:02:26.376Z,94.80
2018-09-20T23:04:54.705Z,94.90
2018-09-20T23:07:22.963Z,95.00
2018-09-20T23:09:51.215Z,95.00
2018-09-20T23:12:19.465Z,95.00
2018-09-20T23:14:47.705Z,95.00
2018-09-20T23:17:15.961Z,95.00
2018-09-20T23:19:44.198Z,95.40
2018-09-20T23:22:12.457Z,95.10
2018-09-20T23:24:40.701Z,95.10
2018-09-20T23:27:08.992Z,95.10
2018-09-20T23:29:37.270Z,95.00
2018-09-20T23:32:05.593Z,95.10
2018-09-20T23:34:33.861Z,95.00
2018-09-20T23:37:03.055Z,95.00
2018-09-20T23:39:31.333Z,95.10
2018-09-20T23:41:59.677Z,95.10
2018-09-20T23:44:27.950Z,95.00
2018-09-20T23:46:56.222Z,95.10
2018-09-20T23:49:24.474Z,95.10
2018-09-20T23:51:52.757Z,95.10
2018-09-20T23:54:20.998Z,95.10
2018-09-20T23:56:49.334Z,95.20
2018-09-20T23:59:17.553Z,95.10
